Terminal Aerodrome Forecast
Issued by NWS

Home | Current Version | Previous Version | Text Only | Print | Product List | Glossary On
Versions: 1 2 3 4 5 6 7 8 9 10 11 12 13 14 15 16 17 18 19 20 21 22 23 24 25 26
000
FTUS41 KCTP 270604 RRA
TAFBFD
TAF
KBFD 270604Z 2706/2806 00000KT 4SM BR VCFG SKC
     FM270900 00000KT 2SM BR SCT001
     FM271200 12004KT P6SM FEW050
     FM280300 15003KT P6SM BKN200=

USA.gov is the U.S. government's official web portal to all federal, state and local government web resources and services.